Time;durP1;ratioP1;P1;durP2;ratioP2;P2;SDS_P1;SDS_P2;PMS_P1;PMS_P2;Temp;Humidity;BMP_temperature;BMP_pressure;BME280_temperature;BME280_humidity;BME280_pressure;Samples;Min_cycle;Max_cycle;Signal;HPM_P1;HPM_P2
2023/03/26 00:00:49;;;;;;;4.17;1.30;;;;;;;7.67;100.00;97642.59;5075160;28;20216;-74
2023/03/26 00:03:19;;;;;;;5.00;1.60;;;;;;;7.66;100.00;97632.22;5075225;28;20231;-74
2023/03/26 00:05:46;;;;;;;3.73;1.40;;;;;;;7.62;100.00;97637.13;5074604;28;20227;-74
2023/03/26 00:08:14;;;;;;;2.20;1.27;;;;;;;7.58;100.00;97632.44;5074831;28;20674;-74
2023/03/26 00:10:42;;;;;;;2.57;1.40;;;;;;;7.49;100.00;97631.06;5074635;28;20667;-74
2023/03/26 00:13:09;;;;;;;2.77;1.40;;;;;;;7.40;100.00;97629.66;5074795;28;20737;-74
2023/03/26 00:15:36;;;;;;;2.57;1.20;;;;;;;7.45;100.00;97630.66;5074536;28;20245;-74
2023/03/26 00:18:04;;;;;;;3.43;1.40;;;;;;;7.45;100.00;97632.50;5074678;28;20209;-74
2023/03/26 00:20:31;;;;;;;2.57;1.40;;;;;;;7.52;100.00;97634.09;5074363;28;20659;-74
2023/03/26 00:23:00;;;;;;;4.47;1.40;;;;;;;7.44;100.00;97630.88;5074241;28;20707;-74
2023/03/26 00:25:27;;;;;;;3.30;1.40;;;;;;;7.45;100.00;97633.31;5074109;28;20228;-74
2023/03/26 00:27:54;;;;;;;2.40;1.30;;;;;;;7.53;100.00;97629.63;5074184;28;20211;-74
2023/03/26 00:30:20;;;;;;;3.53;1.40;;;;;;;7.47;100.00;97630.47;5074731;28;20215;-74
2023/03/26 00:32:47;;;;;;;4.23;1.67;;;;;;;7.45;100.00;97632.50;5074324;28;20236;-74
2023/03/26 00:35:13;;;;;;;2.63;1.67;;;;;;;7.52;100.00;97634.09;5074574;28;20204;-74
2023/03/26 00:37:41;;;;;;;3.17;1.67;;;;;;;7.48;100.00;97635.56;5074265;28;20215;-74
2023/03/26 00:40:09;;;;;;;4.43;1.60;;;;;;;7.47;100.00;97630.47;5074352;28;20219;-74
2023/03/26 00:42:37;;;;;;;3.97;1.47;;;;;;;7.45;100.00;97635.97;5074156;28;20220;-74
2023/03/26 00:45:08;;;;;;;5.17;1.60;;;;;;;7.44;100.00;97626.41;5074734;28;20200;-74
2023/03/26 00:47:34;;;;;;;4.40;1.60;;;;;;;7.45;100.00;97613.97;5074200;28;20200;-74
2023/03/26 00:50:02;;;;;;;3.17;1.67;;;;;;;7.43;100.00;97614.19;5073847;28;20247;-74
2023/03/26 00:52:30;;;;;;;7.83;1.60;;;;;;;7.38;100.00;97613.22;5074012;28;20239;-74
2023/03/26 00:54:56;;;;;;;4.27;1.53;;;;;;;7.37;100.00;97604.44;5074385;28;20652;-74
2023/03/26 00:57:28;;;;;;;3.10;1.47;;;;;;;7.35;100.00;97608.31;5074878;28;20196;-74
2023/03/26 00:59:55;;;;;;;4.03;1.30;;;;;;;7.31;100.00;97594.72;5073764;28;20659;-74
2023/03/26 01:02:22;;;;;;;4.27;1.40;;;;;;;7.39;100.00;97591.84;5074159;28;20232;-74
2023/03/26 01:04:55;;;;;;;4.20;1.43;;;;;;;7.43;100.00;97582.44;5073501;28;20572;-74
2023/03/26 01:07:27;;;;;;;4.87;1.63;;;;;;;7.43;100.00;97579.00;5073577;28;20213;-74
2023/03/26 01:09:57;;;;;;;3.17;1.20;;;;;;;7.45;100.00;97577.78;5073920;28;20212;-74
2023/03/26 01:12:27;;;;;;;5.33;1.27;;;;;;;7.50;100.00;97583.25;5073631;28;20588;-74
2023/03/26 01:14:59;;;;;;;3.53;1.40;;;;;;;7.52;100.00;97572.47;5056184;28;20193;-74
2023/03/26 01:17:32;;;;;;;3.63;1.30;;;;;;;7.50;100.00;97571.84;5073748;28;20196;-74
2023/03/26 01:20:19;;;;;;;3.90;1.40;;;;;;;7.47;100.00;97567.78;5073778;28;20303;-74
2023/03/26 01:22:51;;;;;;;2.67;1.47;;;;;;;7.40;100.00;97560.91;5073221;28;20678;-74
2023/03/26 01:25:17;;;;;;;2.80;1.35;;;;;;;7.36;100.00;97554.41;5074303;28;20195;-74
2023/03/26 01:27:57;;;;;;;4.17;1.40;;;;;;;7.41;100.00;97547.47;5073665;28;20228;-74
2023/03/26 01:30:42;;;;;;;3.90;1.60;;;;;;;7.42;100.00;97540.38;5073626;28;20209;-74
2023/03/26 01:33:18;;;;;;;4.00;1.50;;;;;;;7.49;100.00;97535.84;5073043;28;20289;-74
2023/03/26 01:35:58;;;;;;;5.73;1.53;;;;;;;7.55;100.00;97537.66;5073480;28;20188;-74
2023/03/26 01:38:38;;;;;;;3.37;1.30;;;;;;;7.57;100.00;97540.91;5073411;28;20533;-74
2023/03/26 01:41:17;;;;;;;3.40;1.37;;;;;;;7.59;100.00;97536.19;5073607;28;20207;-74
2023/03/26 01:44:07;;;;;;;2.57;1.40;;;;;;;7.72;100.00;97533.47;5073205;28;20224;-74
2023/03/26 01:46:35;;;;;;;3.60;1.50;;;;;;;7.65;100.00;97522.91;5072889;28;20224;-74
2023/03/26 01:49:02;;;;;;;3.60;1.30;;;;;;;7.72;100.00;97514.94;5073475;28;20298;-74
2023/03/26 01:51:32;;;;;;;5.93;1.30;;;;;;;7.69;100.00;97513.53;5073316;28;20211;-74
2023/03/26 01:54:00;;;;;;;5.57;1.63;;;;;;;7.73;100.00;97501.50;5073012;28;20714;-74
2023/03/26 01:56:45;;;;;;;7.13;1.63;;;;;;;7.71;100.00;97505.38;5073093;28;20575;-74
2023/03/26 01:59:22;;;;;;;4.23;1.50;;;;;;;7.68;100.00;97503.16;5073359;28;20204;-74
2023/03/26 02:02:12;;;;;;;5.07;1.13;;;;;;;7.67;100.00;97496.25;5073248;28;20193;-74
2023/03/26 02:04:42;;;;;;;4.40;1.30;;;;;;;7.70;100.00;97487.91;5056004;28;20195;-74
2023/03/26 02:07:39;;;;;;;4.00;1.60;;;;;;;7.70;100.00;97487.91;5075399;28;20242;-74
2023/03/26 02:10:12;;;;;;;2.93;1.43;;;;;;;7.72;100.00;97485.84;5077785;28;20197;-74
2023/03/26 02:12:41;;;;;;;8.30;2.10;;;;;;;7.67;100.00;97483.03;5076317;28;20232;-74
2023/03/26 02:15:08;;;;;;;1.83;1.13;;;;;;;7.69;100.00;97465.13;5059660;28;20204;-74
2023/03/26 02:17:35;;;;;;;3.23;1.30;;;;;;;7.71;100.00;97461.25;5077700;28;20212;-74
2023/03/26 02:20:09;;;;;;;2.13;1.27;;;;;;;7.75;100.00;97458.97;5076758;28;20295;-74
2023/03/26 02:22:40;;;;;;;2.97;1.10;;;;;;;7.69;100.00;97446.59;5077032;28;20285;-74
2023/03/26 02:25:13;;;;;;;2.50;1.40;;;;;;;7.75;100.00;97453.69;5076740;28;20189;-74
2023/03/26 02:27:39;;;;;;;4.07;1.03;;;;;;;7.72;100.00;97446.16;5076585;28;20231;-74
2023/03/26 02:30:09;;;;;;;6.43;1.27;;;;;;;7.77;100.00;97439.19;5076856;28;20303;-74
2023/03/26 02:32:37;;;;;;;4.07;1.30;;;;;;;7.74;100.00;97433.53;5076276;28;20251;-74
2023/03/26 02:35:05;;;;;;;3.80;1.20;;;;;;;7.77;100.00;97439.19;5058904;28;20211;-74
2023/03/26 02:37:32;;;;;;;3.57;1.20;;;;;;;7.80;100.00;97436.13;5076665;28;20253;-74
2023/03/26 02:39:59;;;;;;;3.37;1.50;;;;;;;7.77;100.00;97444.50;5076375;28;20660;-74
2023/03/26 02:42:26;;;;;;;3.00;1.07;;;;;;;7.75;100.00;97438.63;5076292;28;20232;-74
2023/03/26 02:44:52;;;;;;;2.90;1.17;;;;;;;7.75;100.00;97440.44;5076480;28;20575;-74
2023/03/26 02:47:19;;;;;;;5.57;1.50;;;;;;;7.70;100.00;97438.44;5076048;28;20578;-74
2023/03/26 02:49:46;;;;;;;5.20;1.40;;;;;;;7.74;100.00;97425.59;5076526;28;20208;-74
2023/03/26 02:52:15;;;;;;;4.20;1.20;;;;;;;7.66;100.00;97429.34;5076390;28;20251;-74
2023/03/26 02:54:42;;;;;;;2.07;0.90;;;;;;;7.63;100.00;97429.75;5076218;28;20204;-74
2023/03/26 02:57:08;;;;;;;3.43;1.30;;;;;;;7.65;100.00;97432.97;5076339;28;20579;-74
2023/03/26 02:59:35;;;;;;;4.33;1.50;;;;;;;7.59;100.00;97417.97;5076207;28;20227;-74
2023/03/26 03:02:01;;;;;;;2.93;1.10;;;;;;;7.56;100.00;97417.59;5075600;28;20227;-74
2023/03/26 03:04:28;;;;;;;3.43;1.13;;;;;;;7.56;100.00;97404.38;5076040;28;20706;-74
2023/03/26 03:06:56;;;;;;;4.10;1.40;;;;;;;7.60;100.00;97400.28;5075823;28;20236;-74
2023/03/26 03:09:24;;;;;;;6.20;1.83;;;;;;;7.59;100.00;97396.81;5075955;28;20566;-74
2023/03/26 03:11:52;;;;;;;3.00;1.07;;;;;;;7.60;100.00;97389.72;5075822;28;20220;-74
2023/03/26 03:14:19;;;;;;;5.43;1.97;;;;;;;7.66;100.00;97386.19;5075915;28;20262;-74
2023/03/26 03:16:45;;;;;;;4.17;1.20;;;;;;;7.65;100.00;97384.56;5075883;28;20235;-74
2023/03/26 03:19:12;;;;;;;6.60;1.43;;;;;;;7.65;100.00;97379.28;5074232;28;20205;-74
2023/03/26 03:21:40;;;;;;;3.30;1.00;;;;;;;7.71;100.00;97373.13;5075604;28;20205;-74
2023/03/26 03:24:07;;;;;;;5.13;1.53;;;;;;;7.70;100.00;97374.94;5075499;28;20320;-74
2023/03/26 03:26:35;;;;;;;4.80;1.23;;;;;;;7.76;100.00;97373.28;5075692;28;20224;-74
2023/03/26 03:29:01;;;;;;;5.87;1.80;;;;;;;7.77;100.00;97364.31;5075567;28;20200;-74
2023/03/26 03:31:28;;;;;;;4.73;1.30;;;;;;;7.80;100.00;97356.75;5075541;28;20208;-74
2023/03/26 03:33:54;;;;;;;4.73;1.17;;;;;;;7.83;100.00;97355.50;5075173;28;20236;-74
2023/03/26 03:36:22;;;;;;;3.17;1.20;;;;;;;7.79;100.00;97355.13;5075068;28;20213;-75
2023/03/26 03:38:49;;;;;;;3.37;1.43;;;;;;;7.77;100.00;97345.78;5074985;28;20295;-74
2023/03/26 03:41:17;;;;;;;3.97;1.10;;;;;;;7.83;100.00;97340.44;5074828;28;20295;-75
2023/03/26 03:43:44;;;;;;;5.17;1.40;;;;;;;7.81;100.00;97337.19;5075179;28;20234;-74
2023/03/26 03:46:10;;;;;;;5.60;1.60;;;;;;;7.83;100.00;97339.63;5075206;28;20204;-75
2023/03/26 03:48:38;;;;;;;6.03;1.23;;;;;;;7.84;100.00;97336.78;5074968;28;20663;-75
2023/03/26 03:51:05;;;;;;;3.03;1.40;;;;;;;7.80;100.00;97334.78;5075188;28;20319;-74
2023/03/26 03:53:35;;;;;;;3.53;1.23;;;;;;;7.86;100.00;97328.59;5074954;28;20274;-74
2023/03/26 03:56:03;;;;;;;3.53;1.20;;;;;;;7.92;100.00;97333.81;5075312;28;20198;-74
2023/03/26 03:58:29;;;;;;;4.47;1.27;;;;;;;7.97;100.00;97333.19;5075048;28;20299;-74
2023/03/26 04:00:59;;;;;;;2.70;1.27;;;;;;;7.90;100.00;97324.47;5074424;28;20690;-75
2023/03/26 04:03:27;;;;;;;4.63;1.50;;;;;;;7.89;100.00;97330.81;5074703;28;20259;-74
2023/03/26 04:05:54;;;;;;;5.07;1.33;;;;;;;7.94;100.00;97323.84;5074732;28;20255;-74
2023/03/26 04:08:22;;;;;;;4.73;1.10;;;;;;;8.05;100.00;97317.00;5074721;28;20228;-74
2023/03/26 04:10:49;;;;;;;3.97;1.60;;;;;;;8.04;100.00;97310.91;5075000;28;20209;-74
2023/03/26 04:13:15;;;;;;;7.33;2.07;;;;;;;8.04;100.00;97310.06;5074865;28;20309;-74
2023/03/26 04:15:42;;;;;;;3.57;1.27;;;;;;;8.06;100.00;97300.88;5074415;28;20220;-74
2023/03/26 04:18:10;;;;;;;5.60;1.50;;;;;;;8.14;100.00;97308.53;5074373;28;20211;-74
2023/03/26 04:20:39;;;;;;;5.57;1.50;;;;;;;8.04;100.00;97292.38;5074530;28;20216;-74
2023/03/26 04:23:07;;;;;;;7.93;1.63;;;;;;;8.08;100.00;97284.78;5074482;28;20264;-74
2023/03/26 04:25:35;;;;;;;5.87;1.47;;;;;;;8.13;100.00;97288.41;5074528;28;20202;-75
2023/03/26 04:28:05;;;;;;;5.80;1.90;;;;;;;8.11;100.00;97293.09;5074369;28;20228;-74
2023/03/26 04:30:34;;;;;;;4.80;1.50;;;;;;;8.13;100.00;97274.34;5074223;28;20215;-74
2023/03/26 04:33:05;;;;;;;6.63;1.50;;;;;;;8.07;100.00;97276.06;5074074;28;20232;-74
2023/03/26 04:35:34;;;;;;;4.17;1.50;;;;;;;8.07;100.00;97269.94;5074073;28;20193;-74
2023/03/26 04:38:05;;;;;;;5.07;1.77;;;;;;;8.12;100.00;97268.25;5074251;28;20211;-74
2023/03/26 04:40:33;;;;;;;5.97;1.77;;;;;;;8.14;100.00;97252.94;5073917;28;20197;-74
2023/03/26 04:43:03;;;;;;;4.30;1.70;;;;;;;8.14;100.00;97246.84;5073857;28;20227;-74
2023/03/26 04:45:30;;;;;;;4.30;1.57;;;;;;;8.12;100.00;97236.47;5073887;28;20205;-74
2023/03/26 04:47:58;;;;;;;6.87;1.67;;;;;;;8.15;100.00;97241.31;5073933;28;20235;-74
2023/03/26 04:50:25;;;;;;;4.83;1.60;;;;;;;8.18;100.00;97225.00;5073698;28;20659;-74
2023/03/26 04:52:54;;;;;;;6.03;1.20;;;;;;;8.25;100.00;97225.75;5073506;28;20715;-74
2023/03/26 04:55:35;;;;;;;5.13;1.40;;;;;;;8.20;100.00;97200.94;5074034;28;20204;-75
2023/03/26 04:58:04;;;;;;;7.27;1.40;;;;;;;8.18;100.00;97222.34;5074124;28;20193;-74
2023/03/26 05:00:31;;;;;;;6.20;1.97;;;;;;;8.15;100.00;97222.00;5073668;28;20204;-75
2023/03/26 05:02:58;;;;;;;4.43;1.50;;;;;;;8.20;100.00;97227.41;5074165;28;20221;-74
2023/03/26 05:05:26;;;;;;;4.60;1.40;;;;;;;8.24;100.00;97223.31;5073389;28;20205;-74
2023/03/26 05:07:53;;;;;;;5.57;1.53;;;;;;;8.27;100.00;97221.03;5055683;28;20216;-74
2023/03/26 05:10:20;;;;;;;8.43;1.70;;;;;;;8.30;100.00;97223.25;5073694;28;20207;-75
2023/03/26 05:12:46;;;;;;;5.47;1.53;;;;;;;8.29;100.00;97226.91;5073623;28;20221;-75
2023/03/26 05:15:14;;;;;;;7.13;1.50;;;;;;;8.28;100.00;97227.16;5073625;28;20205;-74
2023/03/26 05:17:42;;;;;;;4.60;1.77;;;;;;;8.28;100.00;97224.50;5073308;28;20804;-75
2023/03/26 05:20:30;;;;;;;10.53;1.80;;;;;;;8.24;100.00;97213.53;5073518;28;20594;-75
2023/03/26 05:22:56;;;;;;;6.60;1.60;;;;;;;8.29;100.00;97203.06;5073315;28;20236;-75
2023/03/26 05:25:23;;;;;;;4.57;1.50;;;;;;;8.26;100.00;97200.88;5074014;28;20200;-74
2023/03/26 05:27:49;;;;;;;7.57;1.90;;;;;;;8.31;100.00;97202.84;5073157;28;20227;-75
2023/03/26 05:30:18;;;;;;;5.33;1.50;;;;;;;8.27;100.00;97194.56;5073465;28;20204;-75
2023/03/26 05:32:48;;;;;;;4.53;1.60;;;;;;;8.28;100.00;97184.78;5073148;28;20307;-75
2023/03/26 05:35:15;;;;;;;8.03;1.70;;;;;;;8.38;100.00;97174.44;5073335;28;20200;-74
2023/03/26 05:37:43;;;;;;;6.87;1.73;;;;;;;8.46;100.00;97171.47;5073135;28;20599;-75
2023/03/26 05:40:10;;;;;;;5.67;1.47;;;;;;;8.38;100.00;97163.84;5073275;28;20205;-75
2023/03/26 05:42:38;;;;;;;4.40;1.40;;;;;;;8.34;100.00;97165.34;5072635;28;20250;-75
2023/03/26 05:45:07;;;;;;;6.93;1.97;;;;;;;8.26;100.00;97169.13;5073477;28;20216;-75
2023/03/26 05:47:33;;;;;;;6.57;1.70;;;;;;;8.35;100.00;97167.75;5073370;28;20228;-75
2023/03/26 05:50:00;;;;;;;3.03;1.43;;;;;;;8.34;100.00;97171.44;5073357;28;20206;-75
2023/03/26 05:52:27;;;;;;;6.50;1.97;;;;;;;8.36;100.00;97158.78;5073023;28;20263;-75
2023/03/26 05:54:54;;;;;;;7.33;1.50;;;;;;;8.28;100.00;97158.31;5073322;28;20208;-74
2023/03/26 05:57:21;;;;;;;4.53;1.57;;;;;;;8.27;100.00;97156.66;5073542;28;20212;-75
2023/03/26 05:59:47;;;;;;;4.17;1.10;;;;;;;8.29;100.00;97146.66;5072947;28;20219;-75
2023/03/26 06:02:14;;;;;;;7.77;1.70;;;;;;;8.25;100.00;97145.50;5073116;28;20224;-75
2023/03/26 06:04:41;;;;;;;4.97;1.50;;;;;;;8.26;100.00;97140.00;5073154;28;20205;-75
2023/03/26 06:07:08;;;;;;;4.57;1.40;;;;;;;8.32;100.00;97123.19;5072627;28;20694;-75
2023/03/26 06:09:37;;;;;;;6.10;1.80;;;;;;;8.21;100.00;97117.88;5073003;28;20204;-75
2023/03/26 06:12:05;;;;;;;4.43;1.40;;;;;;;8.13;100.00;97110.22;5072550;28;20293;-75
2023/03/26 06:14:32;;;;;;;3.73;1.97;;;;;;;8.12;100.00;97106.78;5072948;28;20240;-75
2023/03/26 06:16:58;;;;;;;5.53;1.60;;;;;;;8.15;100.00;97093.06;5072978;28;20221;-75
2023/03/26 06:19:25;;;;;;;5.37;1.63;;;;;;;8.01;100.00;97093.50;5072751;28;20200;-75
2023/03/26 06:21:51;;;;;;;4.17;1.83;;;;;;;8.04;100.00;97085.09;5072869;28;20380;-74
2023/03/26 06:24:18;;;;;;;4.10;1.40;;;;;;;8.05;100.00;97079.59;5072712;28;20686;-75
2023/03/26 06:26:46;;;;;;;5.10;1.50;;;;;;;8.07;100.00;97066.13;5072889;28;20200;-75
2023/03/26 06:29:14;;;;;;;5.23;1.40;;;;;;;8.13;100.00;97068.66;5072935;28;20212;-75
2023/03/26 06:31:41;;;;;;;5.77;1.70;;;;;;;8.18;100.00;97060.84;5073413;28;20212;-75
2023/03/26 06:34:07;;;;;;;4.67;1.50;;;;;;;8.19;100.00;97066.97;5072746;28;20212;-74
2023/03/26 06:36:34;;;;;;;5.27;1.90;;;;;;;8.25;100.00;97069.53;5072805;28;20223;-75
2023/03/26 06:39:01;;;;;;;4.43;1.30;;;;;;;8.27;100.00;97064.00;5072732;28;20201;-74
2023/03/26 06:41:27;;;;;;;6.43;1.47;;;;;;;8.24;100.00;97064.47;5072416;28;20668;-74
2023/03/26 06:43:53;;;;;;;3.43;1.70;;;;;;;8.31;100.00;97068.63;5072426;28;20584;-75
2023/03/26 06:46:22;;;;;;;3.63;1.53;;;;;;;8.28;100.00;97065.63;5072749;28;20204;-75
2023/03/26 06:48:50;;;;;;;3.13;1.63;;;;;;;8.36;100.00;97062.63;5072368;28;20290;-75
2023/03/26 06:51:16;;;;;;;4.07;1.60;;;;;;;8.35;100.00;97051.25;5072676;28;20289;-74
2023/03/26 06:53:43;;;;;;;5.60;1.67;;;;;;;8.42;100.00;97043.19;5075595;28;20225;-74
2023/03/26 06:56:10;;;;;;;5.10;1.57;;;;;;;8.40;100.00;97051.38;5076031;28;20205;-75
2023/03/26 06:58:36;;;;;;;3.63;1.30;;;;;;;8.47;100.00;97048.59;5076044;28;20283;-74
2023/03/26 07:01:02;;;;;;;6.40;1.60;;;;;;;8.57;100.00;97047.00;5076196;28;20205;-74
2023/03/26 07:03:29;;;;;;;6.10;1.70;;;;;;;8.65;99.25;97038.69;5076124;28;20311;-75
2023/03/26 07:05:55;;;;;;;4.63;1.33;;;;;;;8.70;100.00;97038.81;5076188;28;20208;-75
2023/03/26 07:08:22;;;;;;;4.83;1.43;;;;;;;8.68;100.00;97038.22;5075905;28;20373;-75
2023/03/26 07:10:48;;;;;;;4.50;1.40;;;;;;;8.75;97.88;97030.97;5076179;28;20204;-75
2023/03/26 07:13:15;;;;;;;4.10;1.47;;;;;;;8.79;96.40;97028.66;5075853;28;20248;-75
2023/03/26 07:15:41;;;;;;;7.20;1.60;;;;;;;8.84;94.31;97024.28;5075908;28;20266;-75
2023/03/26 07:18:08;;;;;;;3.87;1.40;;;;;;;8.80;94.26;97019.66;5075515;28;20566;-75
2023/03/26 07:20:34;;;;;;;3.10;1.20;;;;;;;8.80;93.49;97017.03;5076037;28;20207;-75
2023/03/26 07:23:01;;;;;;;2.70;1.27;;;;;;;8.83;94.40;97017.34;5075768;28;20225;-75
2023/03/26 07:25:28;;;;;;;3.87;1.40;;;;;;;8.76;95.43;97013.22;5075445;28;20204;-75
2023/03/26 07:28:36;;;;;;;4.13;1.10;;;;;;;8.80;95.82;97001.13;5075351;28;20230;-75
2023/03/26 07:31:05;;;;;;;5.13;1.90;;;;;;;8.69;95.66;96994.78;5075602;28;20250;-75
2023/03/26 07:33:42;;;;;;;5.27;1.40;;;;;;;8.63;100.00;96984.31;5074973;28;20236;-75
2023/03/26 07:36:09;;;;;;;5.73;1.20;;;;;;;8.51;99.76;96978.25;5075577;28;20197;-75
2023/03/26 07:38:55;;;;;;;3.87;1.57;;;;;;;8.53;100.00;96987.56;5075413;28;20560;-75
2023/03/26 07:42:01;;;;;;;3.23;1.27;;;;;;;8.39;100.00;96980.91;5075106;28;20243;-75
2023/03/26 07:44:43;;;;;;;4.50;1.60;;;;;;;8.33;100.00;96988.97;5059564;28;20204;-75
2023/03/26 07:47:27;;;;;;;5.77;1.63;;;;;;;8.30;100.00;96982.28;5075795;28;20193;-75
2023/03/26 07:49:57;;;;;;;5.40;1.50;;;;;;;8.29;100.00;96980.66;5074945;28;20188;-75
2023/03/26 07:52:23;;;;;;;6.10;1.67;;;;;;;8.19;100.00;96958.44;5075256;28;20232;-75
2023/03/26 07:54:50;;;;;;;6.10;1.70;;;;;;;8.33;100.00;96954.53;5075183;28;20226;-76
2023/03/26 07:57:46;;;;;;;4.70;1.70;;;;;;;8.16;100.00;96961.53;5074803;28;20295;-76
2023/03/26 08:00:16;;;;;;;4.80;2.00;;;;;;;8.03;100.00;96953.81;5072707;28;20307;-75
2023/03/26 08:03:10;;;;;;;5.50;1.97;;;;;;;8.00;100.00;96963.00;5075204;28;20228;-76
2023/03/26 08:05:55;;;;;;;8.03;2.30;;;;;;;7.97;100.00;96957.38;5074373;28;20189;-76
2023/03/26 08:08:34;;;;;;;7.00;2.23;;;;;;;7.94;100.00;96949.88;5074706;28;20213;-76
2023/03/26 08:11:01;;;;;;;5.30;2.33;;;;;;;7.89;100.00;96950.59;5074680;28;20192;-76
2023/03/26 08:13:33;;;;;;;8.37;1.93;;;;;;;7.96;100.00;96951.25;5074460;28;20668;-76
2023/03/26 08:16:08;;;;;;;4.00;1.70;;;;;;;7.86;100.00;96942.28;5074594;28;20571;-76
2023/03/26 08:18:40;;;;;;;5.13;1.57;;;;;;;7.86;100.00;96937.81;5074912;28;20553;-76
2023/03/26 08:21:13;;;;;;;7.23;1.97;;;;;;;7.88;100.00;96933.06;5074354;28;20636;-76
2023/03/26 08:23:51;;;;;;;4.27;1.60;;;;;;;7.89;100.00;96923.31;5056824;28;20226;-76
2023/03/26 08:26:28;;;;;;;7.20;2.20;;;;;;;7.81;100.00;96921.81;5075373;28;20547;-76
2023/03/26 08:29:25;;;;;;;5.80;1.90;;;;;;;7.90;100.00;96915.16;5074571;28;20239;-76
2023/03/26 08:31:52;;;;;;;7.10;1.97;;;;;;;7.90;100.00;96906.38;5074320;28;20199;-76
2023/03/26 08:34:19;;;;;;;4.67;1.80;;;;;;;7.93;100.00;96911.22;5074346;28;20200;-76
2023/03/26 08:36:46;;;;;;;4.73;1.83;;;;;;;7.92;100.00;96904.34;5074389;28;20205;-76
2023/03/26 08:39:13;;;;;;;7.17;1.93;;;;;;;7.80;100.00;96901.69;5074837;28;20261;-76
2023/03/26 08:42:07;;;;;;;8.07;2.20;;;;;;;7.90;100.00;96885.22;5073720;28;20215;-76
2023/03/26 08:44:54;;;;;;;4.10;1.70;;;;;;;7.99;100.00;96889.13;5074715;28;20189;-76
2023/03/26 08:47:39;;;;;;;7.53;1.77;;;;;;;7.92;100.00;96893.75;5074062;28;20193;-76
2023/03/26 08:50:33;;;;;;;5.67;1.97;;;;;;;8.03;100.00;96890.28;5073808;28;20192;-76
2023/03/26 08:53:28;;;;;;;4.80;1.77;;;;;;;8.16;100.00;96885.56;5073786;28;20217;-76
2023/03/26 08:56:05;;;;;;;3.43;1.87;;;;;;;8.28;100.00;96886.38;5073903;28;20205;-76
2023/03/26 08:59:15;;;;;;;6.47;2.07;;;;;;;8.34;100.00;96885.47;5073827;28;20632;-76
2023/03/26 09:02:07;;;;;;;5.47;1.90;;;;;;;8.42;100.00;96879.78;5058709;28;20542;-76
2023/03/26 09:04:49;;;;;;;6.93;2.13;;;;;;;8.48;100.00;96886.00;5074180;28;20184;-76
2023/03/26 09:07:44;;;;;;;6.37;1.90;;;;;;;8.54;100.00;96880.56;5073231;28;20677;-76
2023/03/26 09:10:40;;;;;;;6.00;1.90;;;;;;;8.86;100.00;96880.91;5073326;28;20354;-76
2023/03/26 09:13:13;;;;;;;5.87;1.80;;;;;;;9.15;100.00;96885.19;5073116;28;20585;-76
2023/03/26 09:15:48;;;;;;;6.60;2.20;;;;;;;9.12;100.00;96886.47;5072435;28;20552;-76
2023/03/26 09:18:47;;;;;;;4.50;1.67;;;;;;;9.07;100.00;96893.53;5073604;28;20191;-76
2023/03/26 09:21:42;;;;;;;4.93;2.03;;;;;;;9.24;100.00;96892.50;5055651;28;20199;-76
2023/03/26 09:25:06;;;;;;;4.83;1.80;;;;;;;9.35;100.00;96874.94;5073463;28;20204;-76
2023/03/26 09:27:36;;;;;;;3.83;1.60;;;;;;;9.05;100.00;96903.56;4991816;28;20195;-76
2023/03/26 09:30:16;;;;;;;4.93;1.63;;;;;;;9.07;100.00;96899.66;4992326;28;20669;-76
2023/03/26 09:33:11;;;;;;;3.20;1.50;;;;;;;9.26;100.00;96900.22;5049741;28;20273;-76
2023/03/26 09:36:14;;;;;;;5.77;1.90;;;;;;;9.62;100.00;96895.31;5058262;28;20185;-76
2023/03/26 09:38:52;;;;;;;4.60;1.80;;;;;;;9.45;100.00;96894.47;5062219;28;20200;-76
2023/03/26 09:41:35;;;;;;;2.43;1.33;;;;;;;9.73;100.00;96885.66;5073118;28;20202;-76
2023/03/26 09:44:19;;;;;;;3.83;1.53;;;;;;;9.97;100.00;96879.13;5072432;28;20228;-76
2023/03/26 09:47:23;;;;;;;2.37;1.13;;;;;;;10.02;100.00;96877.34;5072807;28;20616;-76
2023/03/26 09:50:28;;;;;;;1.80;1.00;;;;;;;10.21;100.00;96880.56;5072659;28;20702;-76
2023/03/26 09:53:32;;;;;;;3.03;1.10;;;;;;;10.34;100.00;96875.72;5073043;28;20260;-76
2023/03/26 09:56:16;;;;;;;2.40;0.97;;;;;;;10.37;100.00;96880.50;5073193;28;20263;-76
2023/03/26 09:58:58;;;;;;;1.83;1.00;;;;;;;10.45;100.00;96876.66;5073188;28;20196;-76
2023/03/26 10:01:36;;;;;;;1.13;0.90;;;;;;;10.81;100.00;96870.69;5072996;28;20184;-76
2023/03/26 10:04:21;;;;;;;1.17;0.90;;;;;;;11.21;100.00;96863.13;5072777;28;20224;-76
2023/03/26 10:07:14;;;;;;;1.90;0.90;;;;;;;11.10;100.00;96866.78;5072411;28;20632;-76
2023/03/26 10:09:53;;;;;;;1.13;0.73;;;;;;;11.17;100.00;96867.34;5041988;28;20309;-76
2023/03/26 10:12:42;;;;;;;1.23;1.00;;;;;;;11.14;100.00;96863.34;5072502;28;20235;-76
2023/03/26 10:15:23;;;;;;;1.27;0.80;;;;;;;10.96;100.00;96874.31;5073507;28;20204;-76
2023/03/26 10:17:52;;;;;;;2.83;1.10;;;;;;;11.13;100.00;96866.28;5072977;28;20197;-76
2023/03/26 10:20:31;;;;;;;1.97;0.90;;;;;;;11.15;100.00;96861.50;5072602;28;20212;-76
2023/03/26 10:23:19;;;;;;;1.50;0.80;;;;;;;11.33;100.00;96858.47;5072373;28;20220;-76
2023/03/26 10:26:07;;;;;;;2.10;0.90;;;;;;;11.28;100.00;96861.09;5072390;28;20237;-76
2023/03/26 10:28:51;;;;;;;1.57;0.90;;;;;;;11.35;99.32;96856.34;5076032;28;20526;-76
2023/03/26 10:31:30;;;;;;;3.63;0.83;;;;;;;11.62;96.66;96859.03;5076400;28;20189;-76
2023/03/26 10:34:31;;;;;;;3.03;1.03;;;;;;;11.54;93.96;96846.97;5076068;28;20244;-75
2023/03/26 10:37:03;;;;;;;1.50;0.90;;;;;;;12.03;88.28;96839.63;5076341;28;20216;-75
2023/03/26 10:40:08;;;;;;;1.27;0.73;;;;;;;12.35;89.09;96840.34;5076731;28;20204;-75
2023/03/26 10:43:01;;;;;;;1.00;0.77;;;;;;;12.70;85.99;96843.94;5076054;28;20228;-75
2023/03/26 10:45:42;;;;;;;1.63;0.90;;;;;;;12.75;80.55;96840.50;5066763;28;20207;-76
2023/03/26 10:48:42;;;;;;;1.30;0.80;;;;;;;12.99;85.36;96842.47;5076070;28;20678;-75
2023/03/26 10:51:30;;;;;;;3.13;0.90;;;;;;;13.17;78.39;96850.00;5075885;28;20219;-76
2023/03/26 10:54:11;;;;;;;2.53;1.10;;;;;;;12.55;72.67;96864.41;5075352;28;20225;-75
2023/03/26 10:56:49;;;;;;;1.27;0.73;;;;;;;12.29;75.69;96846.72;5058722;28;20549;-75
2023/03/26 10:59:17;;;;;;;1.03;0.80;;;;;;;12.31;69.87;96856.03;5075927;28;20209;-75
2023/03/26 11:01:53;;;;;;;2.47;0.80;;;;;;;11.90;68.62;96864.03;5075173;28;20627;-74
2023/03/26 11:04:44;;;;;;;2.13;0.83;;;;;;;11.85;72.04;96864.78;5075865;28;20199;-75
2023/03/26 11:07:22;;;;;;;2.13;1.13;;;;;;;11.87;73.66;96860.03;5075365;28;20199;-76
2023/03/26 11:09:54;;;;;;;1.77;0.80;;;;;;;11.65;74.70;96869.97;5075634;28;20221;-76
2023/03/26 11:12:39;;;;;;;1.00;0.70;;;;;;;11.54;73.26;96865.59;5075720;28;20315;-76
2023/03/26 11:15:24;;;;;;;1.23;0.90;;;;;;;11.53;70.78;96860.53;5075376;28;20356;-76
2023/03/26 11:17:50;;;;;;;1.53;0.70;;;;;;;11.56;69.24;96852.00;5058181;28;20189;-76
2023/03/26 11:20:33;;;;;;;1.03;0.70;;;;;;;11.81;65.53;96853.06;5076312;28;20543;-76
2023/03/26 11:23:18;;;;;;;1.47;0.90;;;;;;;12.02;64.00;96865.44;5074012;28;20263;-76
2023/03/26 11:25:50;;;;;;;1.30;0.63;;;;;;;12.48;61.92;96853.97;5076023;28;20212;-76
2023/03/26 11:28:35;;;;;;;1.10;0.70;;;;;;;12.82;61.78;96846.38;5075313;28;20615;-76
2023/03/26 11:31:34;;;;;;;2.83;0.77;;;;;;;12.84;62.35;96825.59;5075741;28;20558;-76
2023/03/26 11:34:06;;;;;;;1.47;0.60;;;;;;;13.30;62.13;96835.34;5074820;28;20245;-76
2023/03/26 11:36:40;;;;;;;1.40;0.67;;;;;;;13.23;59.13;96830.25;5074871;28;20186;-75
2023/03/26 11:39:13;;;;;;;1.53;0.70;;;;;;;13.43;57.90;96838.28;5073914;28;20191;-75
2023/03/26 11:41:40;;;;;;;2.33;0.80;;;;;;;13.43;58.45;96827.59;5074773;28;20189;-76
2023/03/26 11:44:14;;;;;;;1.10;0.73;;;;;;;13.52;55.63;96825.22;5074599;28;20736;-75
2023/03/26 11:46:45;;;;;;;2.03;0.80;;;;;;;13.38;58.42;96819.59;5057120;28;20281;-76
2023/03/26 11:49:16;;;;;;;1.67;0.80;;;;;;;13.55;57.00;96819.31;5074550;28;20302;-75
2023/03/26 11:51:46;;;;;;;1.73;0.70;;;;;;;13.59;56.55;96815.84;5074372;28;20188;-77
2023/03/26 11:54:12;;;;;;;1.13;0.80;;;;;;;13.62;57.86;96815.31;5057736;28;20216;-76
2023/03/26 11:56:48;;;;;;;1.50;0.83;;;;;;;13.65;57.83;96808.66;5074836;28;20215;-76
2023/03/26 11:59:26;;;;;;;1.90;0.73;;;;;;;13.57;56.71;96807.28;5075739;28;20204;-75
2023/03/26 12:01:57;;;;;;;1.20;0.77;;;;;;;13.95;55.64;96817.44;5075221;28;20199;-76
2023/03/26 12:04:42;;;;;;;2.97;0.77;;;;;;;13.63;55.12;96821.47;5074198;28;20633;-75